Chama, NM

8:17 PM MST on March 03, 2015 (GMT -0700)
Pagosa Springs | Change Station
CLOSE
Current Station
Airport
Location: Pagosa Springs,
Elevation: 7657 ft
Nearby Weather Stations

Elev 7657 ft 37.29 °N, 107.06 °W | Updated 22 minutes ago

Partly Cloudy
Partly Cloudy
19 °F
Feels Like 19 °F
N
0
Wind Variable Wind from North

Today
High -- | Low -- °F
--% Chance of Precip.
Yesterday
High -- | Low -- °F
Precip. -- in
6:34 AM 6:02 PM
Waxing Gibbous, 98% visible
Pressure 29.84 in
Visibility 0.8 miles
Clouds Mostly Cloudy 6000 ft
Dew Point 19 °F
Humidity 98%
Rainfall 0.00 in
Snow Depth Not available.
UV 0 out of 12
Pollen 6.40 out of 12
Air Quality Not available.
Flu Activity Not available.
METAR KPSO 040255Z AUTO 00000KT 3/4SM BR BKN060 M07/M07 A2984 RMK AO2 VIS 1/2V2 1/2 T10711074

More Conditions Fewer Conditions

Pressure 29.84 in
Visibility 0.8 miles
Clouds Mostly Cloudy 6000 ft
Dew Point 19 °F
Humidity 98%
Rainfall 0.00 in
Snow Depth Not available.
UV 0 out of 12
Pollen 6.40 out of 12
Air Quality Not available.
Flu Activity Not available.
METAR KPSO 040255Z AUTO 00000KT 3/4SM BR BKN060 M07/M07 A2984 RMK AO2 VIS 1/2V2 1/2 T10711074

More Conditions Fewer Conditions

10-Day Weather Forecast

Almanac

Astronomy

Mar. 03, 2015 Rise Set
Actual Time
Civil Twilight
Nautical Twilight
Astronomical Twilight
Moon
Length of Visible Light
Length of Day
Tomorrow will be .
, % of the Moon is Illuminated

Today's Extremes

State Highs State Lows

Community

WunderPhotos

Upload Photos

1,802,374 photos uploaded!

WunderBlogs® & News

Nearby

Air Quality

  Air Quality AQ Index Pollutant
Not available.

Snow Depth

Station Depth Elevation

Earthquake Activity

City Distance Mag. Time & Date
Minimum magnitude displayed is 2.5.

Coastal Water Temperatures

Place Temperature

Nearby Weather Stations